Terminal Aerodrome Forecast
Issued by NWS

Home | Current Version | Previous Version | Graphics & Text | Print | Product List | Glossary On
Versions: 1 2 3 4 5 6 7 8 9 10 11 12 13 14 15 16 17 18 19 20
000
FTUS43 KABR 222300
TAFATY
TAF
KATY 222320Z 2300/2324 19006KT P6SM BKN020 OVC090
     FM230200 25004KT P6SM SCT100
      TEMPO 2310/2313 1SM BR
     FM231500 23005KT P6SM SKC=

USA.gov is the U.S. government's official web portal to all federal, state and local government web resources and services.